KRQO

El Reno Regional Airport

El Reno, Oklahoma, USA
METAR KRQO 232315Z AUTO 36004KT 10SM CLR 10/M09 A3028 RMK AO2 T01041090
Observed Flight Rules
Jan-23 @ 23:15 UTC (25 minutes ago) Visual Flight Rules
Wind Visibility Clouds
360° at 4 knots 10 miles
  • Clear skies
Temperatures Readings
Current 10°C / 50°F
Dewpoint -9°C / 16°F
Humidity 25%
Altimeter 30.28" Hg
Pressure 1025 hPa
Elevation 432
METAR KRQO 232315Z AUTO 36004KT 10SM CLR 10/M09 A3028 RMK AO2 T01041090
Observed Flight Rules
Jan-23 @ 23:15 UTC
(25 minutes ago)
VFR
Wind Visibility
360° at 4 knots 10 miles
Clouds
  • Clear skies
Temperature Dewpoint
10°C / 50°F -9°C / 16°F
Humidity Altimeter Pressure
25% 30.28" Hg 1025 hPa